createdAt,value
2022-09-28T00:01:04.166Z,13.8
2022-09-28T00:02:10.401Z,13.8
2022-09-28T00:03:16.628Z,13.8
2022-09-28T00:04:22.862Z,13.8
2022-09-28T00:05:29.097Z,13.8
2022-09-28T00:06:35.322Z,13.8
2022-09-28T00:07:41.547Z,13.8
2022-09-28T00:08:47.776Z,13.8
2022-09-28T00:09:54.056Z,13.8
2022-09-28T00:11:00.259Z,13.8
2022-09-28T00:12:06.485Z,13.8
2022-09-28T00:13:12.712Z,13.8
2022-09-28T00:14:18.959Z,13.8
2022-09-28T00:15:25.194Z,13.8
2022-09-28T00:16:31.411Z,13.8
2022-09-28T00:17:37.717Z,13.8
2022-09-28T00:18:44.015Z,13.8
2022-09-28T00:19:49.313Z,13.8
2022-09-28T00:20:55.567Z,13.8
2022-09-28T00:22:01.766Z,13.8
2022-09-28T00:23:07.996Z,13.8
2022-09-28T00:24:14.233Z,13.8
2022-09-28T00:25:20.457Z,13.8
2022-09-28T00:26:26.687Z,13.8
2022-09-28T00:27:32.922Z,13.8
2022-09-28T00:28:39.145Z,13.8
2022-09-28T00:29:45.381Z,13.8
2022-09-28T00:30:51.598Z,13.8
2022-09-28T00:31:57.874Z,13.8
2022-09-28T00:33:04.057Z,13.8
2022-09-28T00:34:10.276Z,13.8
2022-09-28T00:35:16.509Z,13.8
2022-09-28T00:36:22.759Z,13.8
2022-09-28T00:37:28.957Z,13.8
2022-09-28T00:38:35.178Z,13.8
2022-09-28T00:39:41.425Z,13.8
2022-09-28T00:40:47.648Z,13.8
2022-09-28T00:41:53.872Z,13.8
2022-09-28T00:43:00.096Z,13.8
2022-09-28T00:44:06.327Z,13.8
2022-09-28T00:45:12.547Z,13.8
2022-09-28T00:46:18.780Z,13.8
2022-09-28T00:47:25.088Z,13.8
2022-09-28T00:48:31.384Z,13.8
2022-09-28T00:49:36.687Z,13.8
2022-09-28T00:50:42.900Z,13.8
2022-09-28T00:51:49.125Z,13.8
2022-09-28T00:52:55.357Z,13.8
2022-09-28T00:54:01.590Z,13.8
2022-09-28T00:55:07.838Z,13.8
2022-09-28T00:56:14.046Z,13.8
2022-09-28T00:57:20.270Z,13.8
2022-09-28T00:58:26.500Z,13.8
2022-09-28T00:59:32.733Z,13.8
2022-09-28T01:00:38.953Z,13.8
2022-09-28T01:01:45.180Z,13.8
2022-09-28T01:02:51.409Z,13.8
2022-09-28T01:03:57.632Z,13.8
2022-09-28T01:05:03.864Z,13.8
2022-09-28T01:06:10.095Z,13.8
2022-09-28T01:07:16.366Z,13.8
2022-09-28T01:08:22.554Z,13.8
2022-09-28T01:09:28.812Z,13.8
2022-09-28T01:10:35.042Z,13.8
2022-09-28T01:11:41.253Z,13.8
2022-09-28T01:12:47.479Z,13.8
2022-09-28T01:13:53.717Z,13.8
2022-09-28T01:14:59.937Z,13.8
2022-09-28T01:16:06.165Z,13.8
2022-09-28T01:17:12.465Z,13.8
2022-09-28T01:18:18.777Z,13.8
2022-09-28T01:19:25.082Z,13.8
2022-09-28T01:20:31.379Z,13.8
2022-09-28T01:21:37.692Z,13.8
2022-09-28T01:22:43.992Z,13.8
2022-09-28T01:23:49.295Z,13.8
2022-09-28T01:24:55.515Z,13.8
2022-09-28T01:26:01.743Z,13.8
2022-09-28T01:27:07.977Z,13.8
2022-09-28T01:28:14.206Z,13.8
2022-09-28T01:29:20.434Z,13.8
2022-09-28T01:30:26.659Z,13.8
2022-09-28T01:31:32.886Z,13.8
2022-09-28T01:32:39.123Z,13.8
2022-09-28T01:33:45.400Z,13.8
2022-09-28T01:34:51.582Z,13.8
2022-09-28T01:35:57.815Z,13.8
2022-09-28T01:37:04.045Z,13.8
2022-09-28T01:38:10.268Z,13.8
2022-09-28T01:39:16.496Z,13.8
2022-09-28T01:40:22.738Z,13.8
2022-09-28T01:41:28.973Z,13.8
2022-09-28T01:42:35.210Z,13.8
2022-09-28T01:43:41.433Z,13.8
2022-09-28T01:44:47.666Z,13.8
2022-09-28T01:45:53.891Z,13.8
2022-09-28T01:47:00.112Z,13.8
2022-09-28T01:48:06.353Z,13.8
2022-09-28T01:49:12.572Z,13.8
2022-09-28T01:50:18.807Z,13.8
2022-09-28T01:51:25.114Z,13.8
2022-09-28T01:52:31.421Z,13.8
2022-09-28T01:53:37.728Z,13.8
2022-09-28T01:54:44.036Z,13.8
2022-09-28T01:55:50.347Z,13.8
2022-09-28T01:56:56.655Z,13.8
2022-09-28T01:58:02.972Z,13.8
2022-09-28T01:59:09.280Z,13.8
2022-09-28T02:00:15.631Z,13.8
2022-09-28T02:01:21.902Z,13.8
2022-09-28T02:02:28.222Z,13.8
2022-09-28T02:03:34.498Z,13.8
2022-09-28T02:04:40.803Z,13.8
2022-09-28T02:05:46.094Z,13.8
2022-09-28T02:06:52.321Z,13.8
2022-09-28T02:07:58.555Z,13.8
2022-09-28T02:09:04.789Z,13.8
2022-09-28T02:10:11.009Z,13.8
2022-09-28T02:11:17.238Z,13.8
2022-09-28T02:12:23.477Z,13.8
2022-09-28T02:13:29.700Z,13.8
2022-09-28T02:14:35.932Z,13.8
2022-09-28T02:15:42.152Z,13.8
2022-09-28T02:16:48.388Z,13.8
2022-09-28T02:17:54.629Z,13.8
2022-09-28T02:19:00.853Z,13.8
2022-09-28T02:20:07.085Z,13.8
2022-09-28T02:21:13.324Z,13.8
2022-09-28T02:22:19.548Z,13.8
2022-09-28T02:23:25.782Z,13.8
2022-09-28T02:24:32.003Z,13.8
2022-09-28T02:25:38.246Z,13.8
2022-09-28T02:26:44.475Z,13.8
2022-09-28T02:27:50.716Z,13.8
2022-09-28T02:28:56.954Z,13.8
2022-09-28T02:30:03.202Z,13.8
2022-09-28T02:31:09.418Z,13.8
2022-09-28T02:32:15.653Z,13.8
2022-09-28T02:33:21.967Z,13.8
2022-09-28T02:34:28.280Z,13.8
2022-09-28T02:35:34.597Z,13.8
2022-09-28T02:36:40.900Z,13.8
2022-09-28T02:37:47.223Z,13.8
2022-09-28T02:38:53.545Z,13.8
2022-09-28T02:39:59.848Z,13.8
2022-09-28T02:41:06.160Z,13.8
2022-09-28T02:42:12.485Z,13.8
2022-09-28T02:43:18.778Z,13.8
2022-09-28T02:44:25.106Z,13.8
2022-09-28T02:45:31.427Z,13.8
2022-09-28T02:46:37.730Z,13.8
2022-09-28T02:47:44.184Z,13.8
2022-09-28T02:48:49.561Z,13.8
2022-09-28T02:49:55.804Z,13.8
2022-09-28T02:51:02.048Z,13.8
2022-09-28T02:52:08.286Z,13.8
2022-09-28T02:53:14.529Z,13.8
2022-09-28T02:54:20.774Z,13.8
2022-09-28T02:55:27.021Z,13.8
2022-09-28T02:56:33.273Z,13.8
2022-09-28T02:57:39.529Z,13.8
2022-09-28T02:58:45.770Z,13.8
2022-09-28T02:59:52.011Z,13.8
2022-09-28T03:00:58.259Z,13.8
2022-09-28T03:02:04.505Z,13.8
2022-09-28T03:03:10.749Z,13.8
2022-09-28T03:04:16.999Z,13.8
2022-09-28T03:05:23.245Z,13.8
2022-09-28T03:06:29.499Z,13.8
2022-09-28T03:07:35.754Z,13.8
2022-09-28T03:08:42.004Z,13.8
2022-09-28T03:09:48.243Z,13.8
2022-09-28T03:10:54.570Z,13.8
2022-09-28T03:12:00.750Z,13.8
2022-09-28T03:13:06.995Z,13.8
2022-09-28T03:14:13.240Z,13.8
2022-09-28T03:15:19.498Z,13.8
2022-09-28T03:16:25.805Z,13.8
2022-09-28T03:17:32.151Z,13.8
2022-09-28T03:18:38.466Z,13.8
2022-09-28T03:19:44.800Z,13.8
2022-09-28T03:20:51.131Z,13.8
2022-09-28T03:21:57.471Z,13.8
2022-09-28T03:23:03.801Z,13.8
2022-09-28T03:24:10.132Z,13.8
2022-09-28T03:25:16.513Z,13.8
2022-09-28T03:26:22.803Z,13.8
2022-09-28T03:27:29.136Z,13.8
2022-09-28T03:28:35.469Z,13.8
2022-09-28T03:29:41.797Z,13.8
2022-09-28T03:30:48.248Z,13.8
2022-09-28T03:31:53.659Z,13.8
2022-09-28T03:32:59.934Z,13.8
2022-09-28T03:34:06.193Z,13.8
2022-09-28T03:35:12.435Z,13.8
2022-09-28T03:36:18.702Z,13.8
2022-09-28T03:37:24.964Z,13.8
2022-09-28T03:38:31.219Z,13.8
2022-09-28T03:39:37.479Z,13.8
2022-09-28T03:40:43.744Z,13.8
2022-09-28T03:41:50.014Z,13.8
2022-09-28T03:42:56.274Z,13.8
2022-09-28T03:44:02.620Z,13.8
2022-09-28T03:45:08.799Z,13.8
2022-09-28T03:46:15.066Z,13.8
2022-09-28T03:47:21.324Z,13.8
2022-09-28T03:48:27.626Z,13.8
2022-09-28T03:49:33.885Z,13.8
2022-09-28T03:50:40.120Z,13.8
2022-09-28T03:51:46.385Z,13.8
2022-09-28T03:52:52.652Z,13.8
2022-09-28T03:53:58.924Z,13.8
2022-09-28T03:55:05.193Z,13.8
2022-09-28T03:56:11.466Z,13.8
2022-09-28T03:57:17.733Z,13.8
2022-09-28T03:58:24.003Z,13.8
2022-09-28T03:59:30.347Z,13.8
2022-09-28T04:00:36.691Z,13.8
2022-09-28T04:01:43.057Z,13.8
2022-09-28T04:02:49.372Z,13.8
2022-09-28T04:03:55.725Z,13.8
2022-09-28T04:05:02.050Z,13.8
2022-09-28T04:06:08.410Z,13.8
2022-09-28T04:07:14.749Z,13.8
2022-09-28T04:08:21.098Z,13.8
2022-09-28T04:09:27.425Z,13.8
2022-09-28T04:10:33.775Z,13.8
2022-09-28T04:11:40.117Z,13.8
2022-09-28T04:12:46.454Z,13.8
2022-09-28T04:13:52.935Z,13.8
2022-09-28T04:14:58.335Z,13.8
2022-09-28T04:16:04.613Z,13.8
2022-09-28T04:17:10.874Z,13.8
2022-09-28T04:18:17.140Z,13.8
2022-09-28T04:19:23.408Z,13.8
2022-09-28T04:20:29.688Z,13.8
2022-09-28T04:21:35.942Z,13.8
2022-09-28T04:22:42.211Z,13.8
2022-09-28T04:23:48.485Z,13.8
2022-09-28T04:24:54.750Z,13.8
2022-09-28T04:26:01.025Z,13.8
2022-09-28T04:27:07.291Z,13.8
2022-09-28T04:28:13.565Z,13.8
2022-09-28T04:29:19.831Z,13.8
2022-09-28T04:30:26.110Z,13.8
2022-09-28T04:31:32.373Z,13.8
2022-09-28T04:32:38.763Z,13.8
2022-09-28T04:33:44.917Z,13.8
2022-09-28T04:34:51.188Z,13.8
2022-09-28T04:35:57.458Z,13.8
2022-09-28T04:37:03.737Z,13.8
2022-09-28T04:38:10.010Z,13.8
2022-09-28T04:39:16.278Z,13.8
2022-09-28T04:40:22.551Z,13.8
2022-09-28T04:41:28.810Z,13.8
2022-09-28T04:42:35.170Z,13.8
2022-09-28T04:43:41.522Z,13.8
2022-09-28T04:44:47.876Z,13.8
2022-09-28T04:45:54.209Z,13.8
2022-09-28T04:47:00.543Z,13.8
2022-09-28T04:48:06.890Z,13.8
2022-09-28T04:49:13.227Z,13.8
2022-09-28T04:50:19.573Z,13.8
2022-09-28T04:51:25.919Z,13.8
2022-09-28T04:52:32.254Z,13.8
2022-09-28T04:53:38.602Z,13.8
2022-09-28T04:54:44.935Z,13.8
2022-09-28T04:55:51.296Z,13.8
2022-09-28T04:56:57.769Z,13.8
2022-09-28T04:58:03.159Z,13.8
2022-09-28T04:59:09.427Z,13.8
2022-09-28T05:00:15.691Z,13.8
2022-09-28T05:01:21.952Z,13.8
2022-09-28T05:02:28.215Z,13.8
2022-09-28T05:03:34.548Z,13.8
2022-09-28T05:04:40.766Z,13.8
2022-09-28T05:05:47.026Z,13.8
2022-09-28T05:06:53.299Z,13.8
2022-09-28T05:07:59.565Z,13.8
2022-09-28T05:09:05.838Z,13.8
2022-09-28T05:10:12.102Z,13.8
2022-09-28T05:11:18.371Z,13.8
2022-09-28T05:12:24.636Z,13.8
2022-09-28T05:13:30.911Z,13.8
2022-09-28T05:14:37.180Z,13.8
2022-09-28T05:15:43.434Z,13.8
2022-09-28T05:16:49.700Z,13.8
2022-09-28T05:17:55.960Z,13.8
2022-09-28T05:19:02.246Z,13.8
2022-09-28T05:20:08.485Z,13.8
2022-09-28T05:21:14.742Z,13.8
2022-09-28T05:22:21.010Z,13.8
2022-09-28T05:23:27.256Z,13.8
2022-09-28T05:24:33.515Z,13.8
2022-09-28T05:25:39.849Z,13.8
2022-09-28T05:26:46.177Z,13.8
2022-09-28T05:27:52.500Z,13.8
2022-09-28T05:28:58.842Z,13.8
2022-09-28T05:30:05.172Z,13.8
2022-09-28T05:31:11.521Z,13.8
2022-09-28T05:32:17.834Z,13.8
2022-09-28T05:33:24.156Z,13.8
2022-09-28T05:34:30.485Z,13.8
2022-09-28T05:35:36.811Z,13.8
2022-09-28T05:36:43.173Z,13.8
2022-09-28T05:37:49.498Z,13.8
2022-09-28T05:38:55.792Z,13.8
2022-09-28T05:40:02.239Z,13.8
2022-09-28T05:41:07.635Z,13.8
2022-09-28T05:42:13.869Z,13.8
2022-09-28T05:43:20.126Z,13.8
2022-09-28T05:44:26.369Z,13.8
2022-09-28T05:45:32.630Z,13.8
2022-09-28T05:46:38.860Z,13.8
2022-09-28T05:47:45.102Z,13.8
2022-09-28T05:48:51.353Z,13.8
2022-09-28T05:49:57.599Z,13.8
2022-09-28T05:51:03.858Z,13.8
2022-09-28T05:52:10.116Z,13.8
2022-09-28T05:53:16.385Z,13.8
2022-09-28T05:54:22.608Z,13.8
2022-09-28T05:55:28.868Z,13.8
2022-09-28T05:56:35.090Z,13.8
2022-09-28T05:57:41.336Z,13.8
2022-09-28T05:58:47.595Z,13.8
2022-09-28T05:59:53.842Z,13.8
2022-09-28T06:01:00.102Z,13.8
2022-09-28T06:02:06.344Z,13.8
2022-09-28T06:03:12.617Z,13.8
2022-09-28T06:04:18.847Z,13.8
2022-09-28T06:05:25.109Z,13.8
2022-09-28T06:06:31.455Z,13.8
2022-09-28T06:07:37.609Z,13.8
2022-09-28T06:08:43.933Z,13.8
2022-09-28T06:09:50.268Z,13.8
2022-09-28T06:10:56.593Z,13.8
2022-09-28T06:12:02.924Z,13.8
2022-09-28T06:13:09.246Z,13.8
2022-09-28T06:14:15.567Z,13.8
2022-09-28T06:15:21.891Z,13.8
2022-09-28T06:16:28.232Z,13.8
2022-09-28T06:17:34.557Z,13.8
2022-09-28T06:18:40.868Z,13.8
2022-09-28T06:19:47.222Z,13.8
2022-09-28T06:20:53.538Z,13.8
2022-09-28T06:21:59.835Z,13.8
2022-09-28T06:23:06.286Z,13.8
2022-09-28T06:24:11.681Z,13.8
2022-09-28T06:25:17.917Z,13.8
2022-09-28T06:26:24.199Z,13.8
2022-09-28T06:27:30.421Z,13.8
2022-09-28T06:28:36.642Z,13.8
2022-09-28T06:29:42.895Z,13.8
2022-09-28T06:30:49.124Z,13.8
2022-09-28T06:31:55.378Z,13.8
2022-09-28T06:33:01.621Z,13.8
2022-09-28T06:34:07.863Z,13.8
2022-09-28T06:35:14.103Z,13.8
2022-09-28T06:36:20.426Z,13.8
2022-09-28T06:37:26.663Z,13.8
2022-09-28T06:38:32.838Z,13.8
2022-09-28T06:39:39.078Z,13.8
2022-09-28T06:40:45.325Z,13.8
2022-09-28T06:41:51.564Z,13.8
2022-09-28T06:42:57.801Z,13.8
2022-09-28T06:44:04.103Z,13.8
2022-09-28T06:45:10.295Z,13.8
2022-09-28T06:46:16.547Z,13.8
2022-09-28T06:47:22.774Z,13.8
2022-09-28T06:48:29.058Z,13.8
2022-09-28T06:49:35.271Z,13.8
2022-09-28T06:50:41.501Z,13.8
2022-09-28T06:51:47.827Z,13.8
2022-09-28T06:52:54.153Z,13.8
2022-09-28T06:54:00.459Z,13.8
2022-09-28T06:55:06.789Z,13.8
2022-09-28T06:56:13.090Z,13.8
2022-09-28T06:57:19.406Z,13.8
2022-09-28T06:58:25.730Z,13.8
2022-09-28T06:59:32.052Z,13.8
2022-09-28T07:00:38.369Z,13.8
2022-09-28T07:01:44.687Z,13.8
2022-09-28T07:02:51.023Z,13.8
2022-09-28T07:03:57.443Z,13.8
2022-09-28T07:05:03.642Z,13.8
2022-09-28T07:06:10.085Z,13.8
2022-09-28T07:07:15.469Z,13.8
2022-09-28T07:08:21.720Z,13.8
2022-09-28T07:09:28.148Z,13.8
2022-09-28T07:10:34.191Z,13.8
2022-09-28T07:11:40.437Z,13.8
2022-09-28T07:12:46.674Z,13.8
2022-09-28T07:13:52.915Z,13.8
2022-09-28T07:14:59.281Z,13.8
2022-09-28T07:16:05.438Z,13.8
2022-09-28T07:17:11.747Z,13.8
2022-09-28T07:18:17.920Z,13.8
2022-09-28T07:19:24.123Z,13.8
2022-09-28T07:20:30.360Z,13.8
2022-09-28T07:21:36.641Z,13.8
2022-09-28T07:22:42.946Z,13.8
2022-09-28T07:23:49.204Z,13.8
2022-09-28T07:24:55.335Z,13.8
2022-09-28T07:26:01.567Z,13.8
2022-09-28T07:27:07.813Z,13.8
2022-09-28T07:28:14.034Z,13.8
2022-09-28T07:29:20.277Z,13.8
2022-09-28T07:30:26.528Z,13.8
2022-09-28T07:31:32.809Z,13.8
2022-09-28T07:32:39.009Z,13.8
2022-09-28T07:33:45.252Z,13.8
2022-09-28T07:34:51.573Z,13.8
2022-09-28T07:35:57.894Z,13.8
2022-09-28T07:37:04.201Z,13.8
2022-09-28T07:38:10.517Z,13.8
2022-09-28T07:39:16.823Z,13.8
2022-09-28T07:40:23.141Z,13.8
2022-09-28T07:41:29.447Z,13.8
2022-09-28T07:42:35.773Z,13.8
2022-09-28T07:43:42.097Z,13.8
2022-09-28T07:44:48.405Z,13.8
2022-09-28T07:45:54.704Z,13.8
2022-09-28T07:47:01.027Z,13.8
2022-09-28T07:48:07.357Z,13.8
2022-09-28T07:49:13.781Z,13.8
2022-09-28T07:50:19.156Z,13.8
2022-09-28T07:51:25.385Z,13.8
2022-09-28T07:52:31.631Z,13.8
2022-09-28T07:53:37.862Z,13.8
2022-09-28T07:54:44.091Z,13.8
2022-09-28T07:55:50.324Z,13.8
2022-09-28T07:56:56.550Z,13.8
2022-09-28T07:58:02.785Z,13.8
2022-09-28T07:59:08.995Z,13.8
2022-09-28T08:00:15.228Z,13.8
2022-09-28T08:01:21.462Z,13.8
2022-09-28T08:02:27.690Z,13.8
2022-09-28T08:03:33.904Z,13.8
2022-09-28T08:04:40.140Z,13.8
2022-09-28T08:05:46.362Z,13.8
2022-09-28T08:06:52.615Z,13.8
2022-09-28T08:07:58.825Z,13.8
2022-09-28T08:09:05.056Z,13.8
2022-09-28T08:10:11.313Z,13.8
2022-09-28T08:11:17.537Z,13.8
2022-09-28T08:12:23.787Z,13.8
2022-09-28T08:13:30.007Z,13.8
2022-09-28T08:14:36.240Z,13.8
2022-09-28T08:15:42.453Z,13.8
2022-09-28T08:16:48.687Z,13.8
2022-09-28T08:17:55.001Z,13.8
2022-09-28T08:19:00.321Z,13.8
2022-09-28T08:20:06.511Z,13.8
2022-09-28T08:21:12.743Z,13.8
2022-09-28T08:22:18.978Z,13.8
2022-09-28T08:23:25.200Z,13.8
2022-09-28T08:24:31.443Z,13.8
2022-09-28T08:25:37.663Z,13.8
2022-09-28T08:26:43.889Z,13.8
2022-09-28T08:27:50.107Z,13.8
2022-09-28T08:28:56.339Z,13.8
2022-09-28T08:30:02.577Z,13.8
2022-09-28T08:31:08.800Z,13.8
2022-09-28T08:32:15.026Z,13.8
2022-09-28T08:33:21.255Z,13.8
2022-09-28T08:34:27.491Z,13.8
2022-09-28T08:35:33.730Z,13.8
2022-09-28T08:36:39.964Z,13.8
2022-09-28T08:37:46.194Z,13.8
2022-09-28T08:38:52.412Z,13.8
2022-09-28T08:39:58.650Z,13.8
2022-09-28T08:41:04.885Z,13.8
2022-09-28T08:42:11.125Z,13.8
2022-09-28T08:43:17.358Z,13.8
2022-09-28T08:44:23.585Z,13.8
2022-09-28T08:45:29.817Z,13.8
2022-09-28T08:46:36.153Z,13.8
2022-09-28T08:47:41.439Z,13.8
2022-09-28T08:48:47.651Z,13.8
2022-09-28T08:49:53.926Z,13.8
2022-09-28T08:51:00.119Z,13.8
2022-09-28T08:52:06.355Z,13.8
2022-09-28T08:53:12.578Z,13.8
2022-09-28T08:54:18.808Z,13.8
2022-09-28T08:55:25.042Z,13.8
2022-09-28T08:56:31.285Z,13.8
2022-09-28T08:57:37.501Z,13.8
2022-09-28T08:58:43.730Z,13.8
2022-09-28T08:59:49.952Z,13.8
2022-09-28T09:00:56.205Z,13.8
2022-09-28T09:02:02.474Z,13.8
2022-09-28T09:03:08.685Z,13.8
2022-09-28T09:04:14.873Z,13.8
2022-09-28T09:05:21.127Z,13.8
2022-09-28T09:06:27.347Z,13.8
2022-09-28T09:07:33.579Z,13.8
2022-09-28T09:08:39.798Z,13.8
2022-09-28T09:09:46.034Z,13.8
2022-09-28T09:10:52.264Z,13.8
2022-09-28T09:11:58.492Z,13.8
2022-09-28T09:13:04.709Z,13.8
2022-09-28T09:14:10.941Z,13.8
2022-09-28T09:15:17.257Z,13.8
2022-09-28T09:16:23.557Z,13.8
2022-09-28T09:17:29.872Z,13.8
2022-09-28T09:18:36.177Z,13.8
2022-09-28T09:19:42.477Z,13.8
2022-09-28T09:20:48.790Z,13.8
2022-09-28T09:21:55.097Z,13.8
2022-09-28T09:23:00.383Z,13.8
2022-09-28T09:24:06.614Z,13.8
2022-09-28T09:25:12.842Z,13.8
2022-09-28T09:26:19.182Z,13.8
2022-09-28T09:27:25.303Z,13.8
2022-09-28T09:28:31.531Z,13.8
2022-09-28T09:29:37.758Z,13.8
2022-09-28T09:30:44.004Z,13.8
2022-09-28T09:31:50.229Z,13.8
2022-09-28T09:32:56.477Z,13.8
2022-09-28T09:34:02.687Z,13.8
2022-09-28T09:35:08.904Z,13.8
2022-09-28T09:36:15.138Z,13.8
2022-09-28T09:37:21.360Z,13.8
2022-09-28T09:38:27.573Z,13.8
2022-09-28T09:39:33.809Z,13.8
2022-09-28T09:40:40.018Z,13.8
2022-09-28T09:41:46.245Z,13.8
2022-09-28T09:42:52.466Z,13.8
2022-09-28T09:43:58.682Z,13.8
2022-09-28T09:45:04.927Z,13.8
2022-09-28T09:46:11.134Z,13.8
2022-09-28T09:47:17.363Z,13.8
2022-09-28T09:48:23.586Z,13.8
2022-09-28T09:49:29.806Z,13.8
2022-09-28T09:50:36.107Z,13.8
2022-09-28T09:51:41.410Z,13.8
2022-09-28T09:52:47.649Z,13.8
2022-09-28T09:53:53.854Z,13.8
2022-09-28T09:55:00.080Z,13.8
2022-09-28T09:56:06.315Z,13.8
2022-09-28T09:57:12.531Z,13.8
2022-09-28T09:58:18.744Z,13.8
2022-09-28T09:59:25.009Z,13.8
2022-09-28T10:00:31.197Z,13.8
2022-09-28T10:01:37.415Z,13.8
2022-09-28T10:02:43.640Z,13.8
2022-09-28T10:03:49.849Z,13.8
2022-09-28T10:04:56.081Z,13.8
2022-09-28T10:06:02.290Z,13.8
2022-09-28T10:07:08.525Z,13.8
2022-09-28T10:08:14.739Z,13.8
2022-09-28T10:09:20.963Z,13.8
2022-09-28T10:10:27.179Z,13.8
2022-09-28T10:11:33.474Z,13.8
2022-09-28T10:12:39.616Z,13.8
2022-09-28T10:13:45.839Z,13.8
2022-09-28T10:14:52.064Z,13.8
2022-09-28T10:15:58.281Z,13.8
2022-09-28T10:17:04.503Z,13.8
2022-09-28T10:18:10.739Z,13.8
2022-09-28T10:19:17.068Z,13.8
2022-09-28T10:20:22.344Z,13.8
2022-09-28T10:21:28.563Z,13.8
2022-09-28T10:22:34.847Z,13.8
2022-09-28T10:23:41.022Z,13.8
2022-09-28T10:24:47.237Z,13.8
2022-09-28T10:25:53.456Z,13.8
2022-09-28T10:26:59.666Z,13.8
2022-09-28T10:28:05.887Z,13.8
2022-09-28T10:29:12.116Z,13.8
2022-09-28T10:30:18.338Z,13.8
2022-09-28T10:31:24.544Z,13.8
2022-09-28T10:32:30.763Z,13.8
2022-09-28T10:33:36.986Z,13.8
2022-09-28T10:34:43.198Z,13.8
2022-09-28T10:35:49.417Z,13.8
2022-09-28T10:36:55.627Z,13.8
2022-09-28T10:38:01.873Z,13.8
2022-09-28T10:39:08.043Z,13.8
2022-09-28T10:40:14.266Z,13.8
2022-09-28T10:41:20.487Z,13.8
2022-09-28T10:42:26.693Z,13.8
2022-09-28T10:43:32.905Z,13.8
2022-09-28T10:44:39.125Z,13.8
2022-09-28T10:45:45.338Z,13.8
2022-09-28T10:46:51.558Z,13.8
2022-09-28T10:47:57.871Z,13.8
2022-09-28T10:49:03.120Z,13.8
2022-09-28T10:50:09.339Z,13.8
2022-09-28T10:51:15.561Z,13.8
2022-09-28T10:52:21.749Z,13.8
2022-09-28T10:53:27.965Z,13.8
2022-09-28T10:54:34.188Z,13.8
2022-09-28T10:55:40.399Z,13.8
2022-09-28T10:56:46.601Z,13.8
2022-09-28T10:57:52.834Z,13.8
2022-09-28T10:58:59.021Z,13.8
2022-09-28T11:00:05.300Z,13.8
2022-09-28T11:01:11.429Z,13.8
2022-09-28T11:02:17.633Z,13.8
2022-09-28T11:03:23.838Z,13.8
2022-09-28T11:04:30.048Z,13.8
2022-09-28T11:05:36.296Z,13.8
2022-09-28T11:06:42.518Z,13.8
2022-09-28T11:07:48.639Z,13.8
2022-09-28T11:08:54.854Z,13.8
2022-09-28T11:10:01.052Z,13.8
2022-09-28T11:11:07.255Z,13.8
2022-09-28T11:12:13.453Z,13.8
2022-09-28T11:13:19.653Z,13.8
2022-09-28T11:14:25.892Z,13.8
2022-09-28T11:15:32.055Z,13.8
2022-09-28T11:16:38.343Z,13.8
2022-09-28T11:17:43.618Z,13.8
2022-09-28T11:18:49.819Z,13.8
2022-09-28T11:19:56.031Z,13.8
2022-09-28T11:21:02.226Z,13.8
2022-09-28T11:22:08.434Z,13.8
2022-09-28T11:23:14.635Z,13.8
2022-09-28T11:24:20.836Z,13.8
2022-09-28T11:25:27.055Z,13.8
2022-09-28T11:26:33.273Z,13.8
2022-09-28T11:27:39.473Z,13.8
2022-09-28T11:28:45.663Z,13.8
2022-09-28T11:29:51.858Z,13.8
2022-09-28T11:30:58.066Z,13.8
2022-09-28T11:32:04.264Z,13.8
2022-09-28T11:33:10.545Z,13.8
2022-09-28T11:34:16.685Z,13.8
2022-09-28T11:35:22.879Z,13.8
2022-09-28T11:36:29.079Z,13.8
2022-09-28T11:37:35.282Z,13.8
2022-09-28T11:38:41.488Z,13.8
2022-09-28T11:39:47.700Z,13.8
2022-09-28T11:40:53.896Z,13.8
2022-09-28T11:42:00.096Z,13.8
2022-09-28T11:43:06.318Z,13.8
2022-09-28T11:44:12.502Z,13.8
2022-09-28T11:45:18.787Z,13.8
2022-09-28T11:46:24.056Z,13.8
2022-09-28T11:47:30.252Z,13.8
2022-09-28T11:48:36.454Z,13.8
2022-09-28T11:49:42.654Z,13.8
2022-09-28T11:50:48.857Z,13.8
2022-09-28T11:51:55.061Z,13.8
2022-09-28T11:53:01.268Z,13.8
2022-09-28T11:54:07.468Z,13.8
2022-09-28T11:55:13.687Z,13.8
2022-09-28T11:56:19.879Z,13.8
2022-09-28T11:57:26.081Z,13.8
2022-09-28T11:58:32.283Z,13.8
2022-09-28T11:59:38.487Z,13.8
2022-09-28T12:00:44.692Z,13.8
2022-09-28T12:01:50.896Z,13.8
2022-09-28T12:02:57.083Z,13.8
2022-09-28T12:04:03.289Z,13.8
2022-09-28T12:05:09.479Z,13.8
2022-09-28T12:06:15.674Z,13.8
2022-09-28T12:07:21.887Z,13.8
2022-09-28T12:08:28.082Z,13.8
2022-09-28T12:09:34.279Z,13.8
2022-09-28T12:10:40.482Z,13.8
2022-09-28T12:11:46.666Z,13.8
2022-09-28T12:12:52.855Z,13.8
2022-09-28T12:13:59.125Z,13.8
2022-09-28T12:15:05.639Z,13.8
2022-09-28T12:16:11.673Z,7.8
2022-09-28T12:17:17.942Z,6.6
2022-09-28T12:18:23.204Z,6.9
2022-09-28T12:19:28.420Z,7.7
2022-09-28T12:20:33.637Z,7.1
2022-09-28T12:21:38.845Z,8.1
2022-09-28T12:22:44.073Z,7.5
2022-09-28T12:23:49.261Z,7.5
2022-09-28T12:24:54.476Z,6.6
2022-09-28T12:25:59.682Z,7.3
2022-09-28T12:27:04.898Z,6.6
2022-09-28T12:28:10.101Z,6
2022-09-28T12:29:16.291Z,6.5
2022-09-28T12:30:22.485Z,7.1
2022-09-28T12:31:28.673Z,5.9
2022-09-28T12:32:34.861Z,5.7
2022-09-28T12:33:41.070Z,5
2022-09-28T12:34:47.249Z,4.69
2022-09-28T12:35:53.442Z,4.5
2022-09-28T12:36:59.639Z,4.8
2022-09-28T12:38:05.842Z,4.4
2022-09-28T12:39:12.010Z,4.3
2022-09-28T12:40:18.209Z,5.3
2022-09-28T12:41:24.436Z,5.8
2022-09-28T12:42:30.590Z,6.3
2022-09-28T12:43:35.801Z,7
2022-09-28T12:44:41.992Z,6.2
2022-09-28T12:45:48.232Z,5.7
2022-09-28T12:46:54.373Z,5.8
2022-09-28T12:48:00.543Z,5.4
2022-09-28T12:49:06.734Z,5.3
2022-09-28T12:50:12.923Z,5.6
2022-09-28T12:51:19.107Z,6.1
2022-09-28T12:52:25.287Z,6
2022-09-28T12:53:31.506Z,5.8
2022-09-28T12:54:37.645Z,5.4
2022-09-28T12:55:43.829Z,5.3
2022-09-28T12:56:50.044Z,4.69
2022-09-28T12:57:55.196Z,4.69
2022-09-28T12:59:01.371Z,4.6
2022-09-28T13:00:07.546Z,5.8
2022-09-28T13:01:13.720Z,4.8
2022-09-28T13:02:19.895Z,4.9
2022-09-28T13:03:26.119Z,5.2
2022-09-28T13:04:32.261Z,5.2
2022-09-28T13:05:38.414Z,4.69
2022-09-28T13:06:44.596Z,4.8
2022-09-28T13:07:50.766Z,4.69
2022-09-28T13:08:56.935Z,5.2
2022-09-28T13:10:03.103Z,6.4
2022-09-28T13:11:09.275Z,4.3
2022-09-28T13:12:14.470Z,4.19
2022-09-28T13:13:20.632Z,5.1
2022-09-28T13:14:26.798Z,5.1
2022-09-28T13:15:32.963Z,4.9
2022-09-28T13:16:39.136Z,4.69
2022-09-28T13:17:45.315Z,4.3
2022-09-28T13:18:51.492Z,4
2022-09-28T13:19:57.650Z,4.69
2022-09-28T13:21:03.843Z,3.9
2022-09-28T13:22:10.007Z,4.3
2022-09-28T13:23:16.161Z,3.8
2022-09-28T13:24:22.342Z,4.1
2022-09-28T13:25:28.532Z,4.4
2022-09-28T13:26:33.708Z,4.3
2022-09-28T13:27:39.882Z,5.1
2022-09-28T13:28:46.055Z,4.3
2022-09-28T13:29:52.224Z,4.8
2022-09-28T13:30:58.394Z,4.3
2022-09-28T13:32:04.592Z,4.4
2022-09-28T13:33:10.746Z,4.4
2022-09-28T13:34:16.909Z,4.3
2022-09-28T13:35:23.100Z,4.6
2022-09-28T13:36:29.303Z,4.4
2022-09-28T13:37:35.471Z,4.6
2022-09-28T13:38:41.624Z,4.6
2022-09-28T13:39:47.777Z,4.19
2022-09-28T13:40:52.981Z,4.19
2022-09-28T13:41:59.154Z,4.3
2022-09-28T13:43:05.358Z,4.5
2022-09-28T13:44:11.509Z,5.3
2022-09-28T13:45:17.695Z,5
2022-09-28T13:46:23.879Z,5.1
2022-09-28T13:47:30.070Z,5.1
2022-09-28T13:48:36.253Z,5
2022-09-28T13:49:42.430Z,6.1
2022-09-28T13:50:48.623Z,5.8
2022-09-28T13:51:54.819Z,5.8
2022-09-28T13:53:00.990Z,5.3
2022-09-28T13:54:07.182Z,6.3
2022-09-28T13:55:12.382Z,5.4
2022-09-28T13:56:18.577Z,5.3
2022-09-28T13:57:24.763Z,5.8
2022-09-28T13:58:30.982Z,6
2022-09-28T13:59:37.139Z,5.5
2022-09-28T14:00:43.322Z,4.6
2022-09-28T14:01:49.507Z,5
2022-09-28T14:02:55.697Z,5.5
2022-09-28T14:04:01.883Z,5.1
2022-09-28T14:05:08.066Z,5
2022-09-28T14:06:14.252Z,4.5
2022-09-28T14:07:20.443Z,5
2022-09-28T14:08:26.633Z,4.8
2022-09-28T14:09:31.866Z,4.8
2022-09-28T14:10:38.018Z,5.4
2022-09-28T14:11:44.243Z,4.9
2022-09-28T14:12:50.396Z,5.1
2022-09-28T14:13:56.607Z,4.3
2022-09-28T14:15:02.802Z,4.8
2022-09-28T14:16:08.995Z,5.1
2022-09-28T14:17:15.175Z,6.3
2022-09-28T14:18:21.372Z,4.3
2022-09-28T14:19:27.549Z,5.1
2022-09-28T14:20:33.741Z,5.5
2022-09-28T14:21:39.935Z,4.8
2022-09-28T14:22:46.132Z,4.1
2022-09-28T14:23:51.321Z,4.3
2022-09-28T14:24:57.505Z,3.9
2022-09-28T14:26:03.687Z,3.4
2022-09-28T14:27:09.872Z,4.4
2022-09-28T14:28:16.060Z,4.8
2022-09-28T14:29:22.248Z,4.5
2022-09-28T14:30:28.431Z,3.8
2022-09-28T14:31:34.651Z,4.19
2022-09-28T14:32:40.807Z,4.1
2022-09-28T14:33:46.996Z,4.1
2022-09-28T14:34:53.181Z,4.8
2022-09-28T14:35:59.371Z,4.3
2022-09-28T14:37:05.575Z,4.69
2022-09-28T14:38:10.767Z,4.6
2022-09-28T14:39:16.952Z,4.3
2022-09-28T14:40:23.132Z,4.3
2022-09-28T14:41:29.320Z,5.2
2022-09-28T14:42:35.510Z,11.2
2022-09-28T14:43:41.693Z,7.9
2022-09-28T14:44:47.883Z,8.3
2022-09-28T14:45:54.077Z,9.3
2022-09-28T14:47:00.273Z,9